sensor_id;sensor_type;location;lat;lon;timestamp;temperature;humidity
5792;DHT22;2922;53.482;10.006;2023-11-18T00:02:23;4.20;99.90
5792;DHT22;2922;53.482;10.006;2023-11-18T00:04:50;4.20;99.90
5792;DHT22;2922;53.482;10.006;2023-11-18T00:07:16;4.20;99.90
5792;DHT22;2922;53.482;10.006;2023-11-18T00:09:42;4.20;99.90
5792;DHT22;2922;53.482;10.006;2023-11-18T00:12:11;4.20;99.90
5792;DHT22;2922;53.482;10.006;2023-11-18T00:14:37;4.20;99.90
5792;DHT22;2922;53.482;10.006;2023-11-18T00:17:03;4.30;99.90
5792;DHT22;2922;53.482;10.006;2023-11-18T00:19:29;4.30;99.90
5792;DHT22;2922;53.482;10.006;2023-11-18T00:21:55;4.20;99.90
5792;DHT22;2922;53.482;10.006;2023-11-18T00:24:21;4.30;99.90
5792;DHT22;2922;53.482;10.006;2023-11-18T00:26:46;4.20;99.90
5792;DHT22;2922;53.482;10.006;2023-11-18T00:29:12;4.30;99.90
5792;DHT22;2922;53.482;10.006;2023-11-18T00:31:38;4.30;99.90
5792;DHT22;2922;53.482;10.006;2023-11-18T00:34:04;4.30;99.90
5792;DHT22;2922;53.482;10.006;2023-11-18T00:36:29;4.30;99.90
5792;DHT22;2922;53.482;10.006;2023-11-18T00:38:55;4.30;99.90
5792;DHT22;2922;53.482;10.006;2023-11-18T00:41:21;4.30;99.90
5792;DHT22;2922;53.482;10.006;2023-11-18T00:43:47;4.30;99.90
5792;DHT22;2922;53.482;10.006;2023-11-18T00:46:12;4.30;99.90
5792;DHT22;2922;53.482;10.006;2023-11-18T00:48:38;4.30;99.90
5792;DHT22;2922;53.482;10.006;2023-11-18T00:51:05;4.30;99.90
5792;DHT22;2922;53.482;10.006;2023-11-18T00:53:31;4.30;99.90
5792;DHT22;2922;53.482;10.006;2023-11-18T00:55:57;4.30;99.90
5792;DHT22;2922;53.482;10.006;2023-11-18T00:58:22;4.40;99.90
5792;DHT22;2922;53.482;10.006;2023-11-18T01:00:48;4.40;99.90
5792;DHT22;2922;53.482;10.006;2023-11-18T01:03:13;4.40;99.90
5792;DHT22;2922;53.482;10.006;2023-11-18T01:05:39;4.40;99.90
5792;DHT22;2922;53.482;10.006;2023-11-18T01:08:04;4.40;99.90
5792;DHT22;2922;53.482;10.006;2023-11-18T01:10:30;4.40;99.90
5792;DHT22;2922;53.482;10.006;2023-11-18T01:12:56;4.50;99.90
5792;DHT22;2922;53.482;10.006;2023-11-18T01:15:23;4.40;99.90
5792;DHT22;2922;53.482;10.006;2023-11-18T01:17:49;4.40;99.90
5792;DHT22;2922;53.482;10.006;2023-11-18T01:20:14;4.40;99.90
5792;DHT22;2922;53.482;10.006;2023-11-18T01:22:46;4.40;99.90
5792;DHT22;2922;53.482;10.006;2023-11-18T01:25:12;4.40;99.90
5792;DHT22;2922;53.482;10.006;2023-11-18T01:27:38;4.40;99.90
5792;DHT22;2922;53.482;10.006;2023-11-18T01:30:05;4.50;99.90
5792;DHT22;2922;53.482;10.006;2023-11-18T01:32:31;4.50;99.90
5792;DHT22;2922;53.482;10.006;2023-11-18T01:34:57;4.50;99.90
5792;DHT22;2922;53.482;10.006;2023-11-18T01:37:22;4.50;99.90
5792;DHT22;2922;53.482;10.006;2023-11-18T01:39:49;4.50;99.90
5792;DHT22;2922;53.482;10.006;2023-11-18T01:42:15;4.50;99.90
5792;DHT22;2922;53.482;10.006;2023-11-18T01:44:41;4.50;99.90
5792;DHT22;2922;53.482;10.006;2023-11-18T01:47:08;4.50;99.90
5792;DHT22;2922;53.482;10.006;2023-11-18T01:49:38;4.60;99.90
5792;DHT22;2922;53.482;10.006;2023-11-18T01:52:06;4.50;99.90
5792;DHT22;2922;53.482;10.006;2023-11-18T01:54:34;4.50;99.90
5792;DHT22;2922;53.482;10.006;2023-11-18T01:57:00;4.50;99.90
5792;DHT22;2922;53.482;10.006;2023-11-18T01:59:28;4.60;99.90
5792;DHT22;2922;53.482;10.006;2023-11-18T02:01:55;4.60;99.90
5792;DHT22;2922;53.482;10.006;2023-11-18T02:04:25;4.60;99.90
5792;DHT22;2922;53.482;10.006;2023-11-18T02:06:51;4.60;99.90
5792;DHT22;2922;53.482;10.006;2023-11-18T02:09:18;4.60;99.90
5792;DHT22;2922;53.482;10.006;2023-11-18T02:12:23;4.60;99.90
5792;DHT22;2922;53.482;10.006;2023-11-18T02:14:52;4.60;99.90
5792;DHT22;2922;53.482;10.006;2023-11-18T02:17:21;4.60;99.90
5792;DHT22;2922;53.482;10.006;2023-11-18T02:19:53;4.60;99.90
5792;DHT22;2922;53.482;10.006;2023-11-18T02:22:21;4.60;99.90
5792;DHT22;2922;53.482;10.006;2023-11-18T02:24:47;4.60;99.90
5792;DHT22;2922;53.482;10.006;2023-11-18T02:27:13;4.60;99.90
5792;DHT22;2922;53.482;10.006;2023-11-18T02:29:42;4.60;99.90
5792;DHT22;2922;53.482;10.006;2023-11-18T02:32:16;4.60;99.90
5792;DHT22;2922;53.482;10.006;2023-11-18T02:37:39;4.60;99.90
5792;DHT22;2922;53.482;10.006;2023-11-18T02:40:07;4.60;99.90
5792;DHT22;2922;53.482;10.006;2023-11-18T02:42:38;4.60;99.90
5792;DHT22;2922;53.482;10.006;2023-11-18T02:45:05;4.60;99.90
5792;DHT22;2922;53.482;10.006;2023-11-18T02:47:32;4.60;99.90
5792;DHT22;2922;53.482;10.006;2023-11-18T02:49:58;4.70;99.90
5792;DHT22;2922;53.482;10.006;2023-11-18T02:52:45;4.60;99.90
5792;DHT22;2922;53.482;10.006;2023-11-18T02:55:10;4.70;99.90
5792;DHT22;2922;53.482;10.006;2023-11-18T02:57:37;4.70;99.90
5792;DHT22;2922;53.482;10.006;2023-11-18T03:00:04;4.70;99.90
5792;DHT22;2922;53.482;10.006;2023-11-18T03:02:30;4.70;99.90
5792;DHT22;2922;53.482;10.006;2023-11-18T03:04:59;4.70;99.90
5792;DHT22;2922;53.482;10.006;2023-11-18T03:07:25;4.60;99.90
5792;DHT22;2922;53.482;10.006;2023-11-18T03:09:54;4.60;99.90
5792;DHT22;2922;53.482;10.006;2023-11-18T03:12:22;4.60;99.90
5792;DHT22;2922;53.482;10.006;2023-11-18T03:14:47;4.60;99.90
5792;DHT22;2922;53.482;10.006;2023-11-18T03:17:13;4.60;99.90
5792;DHT22;2922;53.482;10.006;2023-11-18T03:19:39;4.60;99.90
5792;DHT22;2922;53.482;10.006;2023-11-18T03:22:04;4.60;99.90
5792;DHT22;2922;53.482;10.006;2023-11-18T03:24:30;4.60;99.90
5792;DHT22;2922;53.482;10.006;2023-11-18T03:26:56;4.60;99.90
5792;DHT22;2922;53.482;10.006;2023-11-18T03:29:22;4.60;99.90
5792;DHT22;2922;53.482;10.006;2023-11-18T03:31:48;4.60;99.90
5792;DHT22;2922;53.482;10.006;2023-11-18T03:34:17;4.60;99.90
5792;DHT22;2922;53.482;10.006;2023-11-18T03:36:46;4.60;99.90
5792;DHT22;2922;53.482;10.006;2023-11-18T03:39:14;4.60;99.90
5792;DHT22;2922;53.482;10.006;2023-11-18T03:41:40;4.70;99.90
5792;DHT22;2922;53.482;10.006;2023-11-18T03:44:10;4.60;99.90
5792;DHT22;2922;53.482;10.006;2023-11-18T03:46:36;4.60;99.90
5792;DHT22;2922;53.482;10.006;2023-11-18T03:49:02;4.60;99.90
5792;DHT22;2922;53.482;10.006;2023-11-18T03:51:28;4.60;99.90
5792;DHT22;2922;53.482;10.006;2023-11-18T03:53:54;4.60;99.90
5792;DHT22;2922;53.482;10.006;2023-11-18T03:56:19;4.60;99.90
5792;DHT22;2922;53.482;10.006;2023-11-18T03:58:45;4.60;99.90
5792;DHT22;2922;53.482;10.006;2023-11-18T04:01:21;4.50;99.90
5792;DHT22;2922;53.482;10.006;2023-11-18T04:03:47;4.50;99.90
5792;DHT22;2922;53.482;10.006;2023-11-18T04:06:12;4.60;99.90
5792;DHT22;2922;53.482;10.006;2023-11-18T04:08:42;4.60;99.90
5792;DHT22;2922;53.482;10.006;2023-11-18T04:11:07;4.50;99.90
5792;DHT22;2922;53.482;10.006;2023-11-18T04:13:33;4.60;99.90
5792;DHT22;2922;53.482;10.006;2023-11-18T04:15:58;4.60;99.90
5792;DHT22;2922;53.482;10.006;2023-11-18T04:18:24;4.60;99.90
5792;DHT22;2922;53.482;10.006;2023-11-18T04:20:50;4.60;99.90
5792;DHT22;2922;53.482;10.006;2023-11-18T04:23:16;4.60;99.90
5792;DHT22;2922;53.482;10.006;2023-11-18T04:25:41;4.50;99.90
5792;DHT22;2922;53.482;10.006;2023-11-18T04:28:07;4.50;99.90
5792;DHT22;2922;53.482;10.006;2023-11-18T04:30:32;4.50;99.90
5792;DHT22;2922;53.482;10.006;2023-11-18T04:32:58;4.50;99.90
5792;DHT22;2922;53.482;10.006;2023-11-18T04:35:23;4.50;99.90
5792;DHT22;2922;53.482;10.006;2023-11-18T04:37:49;4.50;99.90
5792;DHT22;2922;53.482;10.006;2023-11-18T04:40:15;4.50;99.90
5792;DHT22;2922;53.482;10.006;2023-11-18T04:42:41;4.50;99.90
5792;DHT22;2922;53.482;10.006;2023-11-18T04:45:06;4.40;99.90
5792;DHT22;2922;53.482;10.006;2023-11-18T04:47:35;4.40;99.90
5792;DHT22;2922;53.482;10.006;2023-11-18T04:50:01;4.40;99.90
5792;DHT22;2922;53.482;10.006;2023-11-18T04:52:28;4.40;99.90
5792;DHT22;2922;53.482;10.006;2023-11-18T04:54:54;4.30;99.90
5792;DHT22;2922;53.482;10.006;2023-11-18T04:57:19;4.20;99.90
5792;DHT22;2922;53.482;10.006;2023-11-18T04:59:45;4.20;99.90
5792;DHT22;2922;53.482;10.006;2023-11-18T05:02:10;4.20;99.90
5792;DHT22;2922;53.482;10.006;2023-11-18T05:04:36;4.20;99.90
5792;DHT22;2922;53.482;10.006;2023-11-18T05:07:01;4.20;99.90
5792;DHT22;2922;53.482;10.006;2023-11-18T05:09:28;4.20;99.90
5792;DHT22;2922;53.482;10.006;2023-11-18T05:11:53;4.10;99.90
5792;DHT22;2922;53.482;10.006;2023-11-18T05:14:20;4.20;99.90
5792;DHT22;2922;53.482;10.006;2023-11-18T05:16:46;4.10;99.90
5792;DHT22;2922;53.482;10.006;2023-11-18T05:19:12;4.10;99.90
5792;DHT22;2922;53.482;10.006;2023-11-18T05:21:38;4.10;99.90
5792;DHT22;2922;53.482;10.006;2023-11-18T05:24:03;4.00;99.90
5792;DHT22;2922;53.482;10.006;2023-11-18T05:26:29;4.00;99.90
5792;DHT22;2922;53.482;10.006;2023-11-18T05:28:55;4.00;99.90
5792;DHT22;2922;53.482;10.006;2023-11-18T05:31:20;4.00;99.90
5792;DHT22;2922;53.482;10.006;2023-11-18T05:33:46;4.00;99.90
5792;DHT22;2922;53.482;10.006;2023-11-18T05:36:17;3.90;99.90
5792;DHT22;2922;53.482;10.006;2023-11-18T05:38:44;3.90;99.90
5792;DHT22;2922;53.482;10.006;2023-11-18T05:41:10;3.90;99.90
5792;DHT22;2922;53.482;10.006;2023-11-18T05:43:41;3.90;99.90
5792;DHT22;2922;53.482;10.006;2023-11-18T05:46:16;3.90;99.90
5792;DHT22;2922;53.482;10.006;2023-11-18T05:48:46;3.90;99.90
5792;DHT22;2922;53.482;10.006;2023-11-18T05:51:12;4.00;99.90
5792;DHT22;2922;53.482;10.006;2023-11-18T05:53:42;3.90;99.90
5792;DHT22;2922;53.482;10.006;2023-11-18T05:56:13;3.90;99.90
5792;DHT22;2922;53.482;10.006;2023-11-18T05:58:39;3.90;99.90
5792;DHT22;2922;53.482;10.006;2023-11-18T06:01:05;3.90;99.90
5792;DHT22;2922;53.482;10.006;2023-11-18T06:03:33;3.90;99.90
5792;DHT22;2922;53.482;10.006;2023-11-18T06:06:00;3.90;99.90
5792;DHT22;2922;53.482;10.006;2023-11-18T06:08:26;3.90;99.90
5792;DHT22;2922;53.482;10.006;2023-11-18T06:10:51;3.90;99.90
5792;DHT22;2922;53.482;10.006;2023-11-18T06:13:22;3.90;99.90
5792;DHT22;2922;53.482;10.006;2023-11-18T06:15:48;3.90;99.90
5792;DHT22;2922;53.482;10.006;2023-11-18T06:18:15;3.90;99.90
5792;DHT22;2922;53.482;10.006;2023-11-18T06:20:40;3.80;99.90
5792;DHT22;2922;53.482;10.006;2023-11-18T06:23:06;3.80;99.90
5792;DHT22;2922;53.482;10.006;2023-11-18T06:25:32;3.70;99.90
5792;DHT22;2922;53.482;10.006;2023-11-18T06:27:59;3.70;99.90
5792;DHT22;2922;53.482;10.006;2023-11-18T06:30:25;3.70;99.90
5792;DHT22;2922;53.482;10.006;2023-11-18T06:32:51;3.70;99.90
5792;DHT22;2922;53.482;10.006;2023-11-18T06:35:17;3.70;99.90
5792;DHT22;2922;53.482;10.006;2023-11-18T06:37:42;3.60;99.90
5792;DHT22;2922;53.482;10.006;2023-11-18T06:40:08;3.60;99.90
5792;DHT22;2922;53.482;10.006;2023-11-18T06:42:45;3.60;99.90
5792;DHT22;2922;53.482;10.006;2023-11-18T06:45:13;3.50;99.90
5792;DHT22;2922;53.482;10.006;2023-11-18T06:47:39;3.50;99.90
5792;DHT22;2922;53.482;10.006;2023-11-18T06:50:09;3.50;99.90
5792;DHT22;2922;53.482;10.006;2023-11-18T06:52:37;3.40;99.90
5792;DHT22;2922;53.482;10.006;2023-11-18T06:55:04;3.40;99.90
5792;DHT22;2922;53.482;10.006;2023-11-18T06:57:29;3.40;99.90
5792;DHT22;2922;53.482;10.006;2023-11-18T06:59:55;3.30;99.90
5792;DHT22;2922;53.482;10.006;2023-11-18T07:02:20;3.30;99.90
5792;DHT22;2922;53.482;10.006;2023-11-18T07:04:46;3.30;99.90
5792;DHT22;2922;53.482;10.006;2023-11-18T07:07:12;3.30;99.90
5792;DHT22;2922;53.482;10.006;2023-11-18T07:09:38;3.30;99.90
5792;DHT22;2922;53.482;10.006;2023-11-18T07:12:05;3.30;99.90
5792;DHT22;2922;53.482;10.006;2023-11-18T07:14:30;3.30;99.90
5792;DHT22;2922;53.482;10.006;2023-11-18T07:16:56;3.30;99.90
5792;DHT22;2922;53.482;10.006;2023-11-18T07:19:21;3.30;99.90
5792;DHT22;2922;53.482;10.006;2023-11-18T07:21:48;3.30;99.90
5792;DHT22;2922;53.482;10.006;2023-11-18T07:24:14;3.30;99.90
5792;DHT22;2922;53.482;10.006;2023-11-18T07:26:40;3.30;99.90
5792;DHT22;2922;53.482;10.006;2023-11-18T07:29:05;3.30;99.90
5792;DHT22;2922;53.482;10.006;2023-11-18T07:31:34;3.30;99.90
5792;DHT22;2922;53.482;10.006;2023-11-18T07:34:02;3.30;99.90
5792;DHT22;2922;53.482;10.006;2023-11-18T07:36:28;3.30;99.90
5792;DHT22;2922;53.482;10.006;2023-11-18T07:38:54;3.30;99.90
5792;DHT22;2922;53.482;10.006;2023-11-18T07:41:20;3.40;99.90
5792;DHT22;2922;53.482;10.006;2023-11-18T07:43:50;3.40;99.90
5792;DHT22;2922;53.482;10.006;2023-11-18T07:46:16;3.40;99.90
5792;DHT22;2922;53.482;10.006;2023-11-18T07:48:42;3.40;99.90
5792;DHT22;2922;53.482;10.006;2023-11-18T07:51:07;3.40;99.90
5792;DHT22;2922;53.482;10.006;2023-11-18T07:53:33;3.40;99.90
5792;DHT22;2922;53.482;10.006;2023-11-18T07:55:59;3.40;99.90
5792;DHT22;2922;53.482;10.006;2023-11-18T07:58:26;3.50;99.90
5792;DHT22;2922;53.482;10.006;2023-11-18T08:00:53;3.60;99.90
5792;DHT22;2922;53.482;10.006;2023-11-18T08:03:20;3.60;99.90
5792;DHT22;2922;53.482;10.006;2023-11-18T08:05:46;3.60;99.90
5792;DHT22;2922;53.482;10.006;2023-11-18T08:08:14;3.70;99.90
5792;DHT22;2922;53.482;10.006;2023-11-18T08:10:42;3.70;99.90
5792;DHT22;2922;53.482;10.006;2023-11-18T08:13:11;3.80;99.90
5792;DHT22;2922;53.482;10.006;2023-11-18T08:15:39;3.80;99.90
5792;DHT22;2922;53.482;10.006;2023-11-18T08:18:08;3.80;99.90
5792;DHT22;2922;53.482;10.006;2023-11-18T08:20:35;3.90;99.90
5792;DHT22;2922;53.482;10.006;2023-11-18T08:23:01;3.90;99.90
5792;DHT22;2922;53.482;10.006;2023-11-18T08:25:27;3.90;99.90
5792;DHT22;2922;53.482;10.006;2023-11-18T08:27:52;4.00;99.90
5792;DHT22;2922;53.482;10.006;2023-11-18T08:30:18;4.00;99.90
5792;DHT22;2922;53.482;10.006;2023-11-18T08:32:46;4.00;99.90
5792;DHT22;2922;53.482;10.006;2023-11-18T08:35:12;4.00;99.90
5792;DHT22;2922;53.482;10.006;2023-11-18T08:37:40;4.00;99.90
5792;DHT22;2922;53.482;10.006;2023-11-18T08:40:07;4.00;99.90
5792;DHT22;2922;53.482;10.006;2023-11-18T08:42:41;4.00;99.90
5792;DHT22;2922;53.482;10.006;2023-11-18T08:45:14;3.90;99.90
5792;DHT22;2922;53.482;10.006;2023-11-18T08:47:48;3.90;99.90
5792;DHT22;2922;53.482;10.006;2023-11-18T08:50:15;4.00;99.90
5792;DHT22;2922;53.482;10.006;2023-11-18T08:52:42;4.00;99.90
5792;DHT22;2922;53.482;10.006;2023-11-18T08:55:11;4.00;99.90
5792;DHT22;2922;53.482;10.006;2023-11-18T08:57:47;4.10;99.90
5792;DHT22;2922;53.482;10.006;2023-11-18T09:00:28;4.20;99.90
5792;DHT22;2922;53.482;10.006;2023-11-18T09:03:27;4.30;99.90
5792;DHT22;2922;53.482;10.006;2023-11-18T09:05:59;4.40;99.90
5792;DHT22;2922;53.482;10.006;2023-11-18T09:08:31;4.50;99.90
5792;DHT22;2922;53.482;10.006;2023-11-18T09:11:08;4.60;99.90
5792;DHT22;2922;53.482;10.006;2023-11-18T09:13:37;4.70;99.90
5792;DHT22;2922;53.482;10.006;2023-11-18T09:16:05;4.70;99.90
5792;DHT22;2922;53.482;10.006;2023-11-18T09:18:35;4.80;99.90
5792;DHT22;2922;53.482;10.006;2023-11-18T09:21:01;4.80;99.90
5792;DHT22;2922;53.482;10.006;2023-11-18T09:23:29;4.90;99.90
5792;DHT22;2922;53.482;10.006;2023-11-18T09:25:55;4.90;99.90
5792;DHT22;2922;53.482;10.006;2023-11-18T09:28:21;5.20;99.90
5792;DHT22;2922;53.482;10.006;2023-11-18T09:30:49;5.40;99.90
5792;DHT22;2922;53.482;10.006;2023-11-18T09:33:17;5.50;99.90
5792;DHT22;2922;53.482;10.006;2023-11-18T09:36:05;5.60;99.90
5792;DHT22;2922;53.482;10.006;2023-11-18T09:38:34;5.70;99.90
5792;DHT22;2922;53.482;10.006;2023-11-18T09:41:02;5.70;99.90
5792;DHT22;2922;53.482;10.006;2023-11-18T09:43:31;5.80;99.90
5792;DHT22;2922;53.482;10.006;2023-11-18T09:46:33;5.90;99.90
5792;DHT22;2922;53.482;10.006;2023-11-18T09:51:44;6.20;99.90
5792;DHT22;2922;53.482;10.006;2023-11-18T09:54:20;6.20;99.90
5792;DHT22;2922;53.482;10.006;2023-11-18T09:57:16;6.20;99.90
5792;DHT22;2922;53.482;10.006;2023-11-18T10:00:00;6.10;99.90
5792;DHT22;2922;53.482;10.006;2023-11-18T10:02:39;6.10;99.90
5792;DHT22;2922;53.482;10.006;2023-11-18T10:05:06;6.30;99.90
5792;DHT22;2922;53.482;10.006;2023-11-18T10:07:41;6.40;99.90
5792;DHT22;2922;53.482;10.006;2023-11-18T10:10:08;6.50;99.90
5792;DHT22;2922;53.482;10.006;2023-11-18T10:12:50;6.60;99.90
5792;DHT22;2922;53.482;10.006;2023-11-18T10:15:23;6.70;99.90
5792;DHT22;2922;53.482;10.006;2023-11-18T10:17:50;6.70;99.90
5792;DHT22;2922;53.482;10.006;2023-11-18T10:20:45;6.90;99.90
5792;DHT22;2922;53.482;10.006;2023-11-18T10:23:14;7.00;99.90
5792;DHT22;2922;53.482;10.006;2023-11-18T10:25:48;7.10;99.90
5792;DHT22;2922;53.482;10.006;2023-11-18T10:28:30;7.10;99.90
5792;DHT22;2922;53.482;10.006;2023-11-18T10:31:01;7.20;99.90
5792;DHT22;2922;53.482;10.006;2023-11-18T10:33:34;7.20;99.90
5792;DHT22;2922;53.482;10.006;2023-11-18T10:36:01;7.20;99.90
5792;DHT22;2922;53.482;10.006;2023-11-18T10:38:31;7.20;99.90
5792;DHT22;2922;53.482;10.006;2023-11-18T10:40:58;7.20;99.90
5792;DHT22;2922;53.482;10.006;2023-11-18T10:43:26;7.30;99.90
5792;DHT22;2922;53.482;10.006;2023-11-18T10:46:12;7.40;99.90
5792;DHT22;2922;53.482;10.006;2023-11-18T10:48:48;7.40;99.90
5792;DHT22;2922;53.482;10.006;2023-11-18T10:51:15;7.40;99.90
5792;DHT22;2922;53.482;10.006;2023-11-18T10:53:44;7.40;99.90
5792;DHT22;2922;53.482;10.006;2023-11-18T10:56:24;7.50;99.90
5792;DHT22;2922;53.482;10.006;2023-11-18T10:59:06;7.50;99.90
5792;DHT22;2922;53.482;10.006;2023-11-18T11:01:37;7.50;99.90
5792;DHT22;2922;53.482;10.006;2023-11-18T11:04:09;7.50;99.90
5792;DHT22;2922;53.482;10.006;2023-11-18T11:06:43;7.50;99.90
5792;DHT22;2922;53.482;10.006;2023-11-18T11:09:11;7.50;99.90
5792;DHT22;2922;53.482;10.006;2023-11-18T11:11:53;7.60;99.90
5792;DHT22;2922;53.482;10.006;2023-11-18T11:14:22;7.60;99.90
5792;DHT22;2922;53.482;10.006;2023-11-18T11:16:53;7.60;99.90
5792;DHT22;2922;53.482;10.006;2023-11-18T11:19:34;7.70;99.90
5792;DHT22;2922;53.482;10.006;2023-11-18T11:22:10;7.60;99.90
5792;DHT22;2922;53.482;10.006;2023-11-18T11:27:33;7.70;99.90
5792;DHT22;2922;53.482;10.006;2023-11-18T11:30:21;7.60;99.90
5792;DHT22;2922;53.482;10.006;2023-11-18T11:35:56;7.70;99.90
5792;DHT22;2922;53.482;10.006;2023-11-18T11:38:25;7.80;99.90
5792;DHT22;2922;53.482;10.006;2023-11-18T11:40:55;7.80;99.90
5792;DHT22;2922;53.482;10.006;2023-11-18T11:43:23;8.00;99.90
5792;DHT22;2922;53.482;10.006;2023-11-18T11:45:53;8.00;99.90
5792;DHT22;2922;53.482;10.006;2023-11-18T11:48:21;8.00;99.90
5792;DHT22;2922;53.482;10.006;2023-11-18T11:51:16;8.10;99.90
5792;DHT22;2922;53.482;10.006;2023-11-18T11:53:54;8.00;99.90
5792;DHT22;2922;53.482;10.006;2023-11-18T11:56:39;8.00;99.90
5792;DHT22;2922;53.482;10.006;2023-11-18T11:59:05;8.00;99.90
5792;DHT22;2922;53.482;10.006;2023-11-18T12:01:37;7.90;99.90
5792;DHT22;2922;53.482;10.006;2023-11-18T12:04:04;7.90;99.90
5792;DHT22;2922;53.482;10.006;2023-11-18T12:06:42;7.80;99.90
5792;DHT22;2922;53.482;10.006;2023-11-18T12:09:10;7.70;99.90
5792;DHT22;2922;53.482;10.006;2023-11-18T12:11:37;7.60;99.90
5792;DHT22;2922;53.482;10.006;2023-11-18T12:14:08;7.60;99.90
5792;DHT22;2922;53.482;10.006;2023-11-18T12:17:03;7.60;99.90
5792;DHT22;2922;53.482;10.006;2023-11-18T12:19:37;7.60;99.90
5792;DHT22;2922;53.482;10.006;2023-11-18T12:22:22;7.60;99.90
5792;DHT22;2922;53.482;10.006;2023-11-18T12:27:46;7.60;99.90
5792;DHT22;2922;53.482;10.006;2023-11-18T12:33:03;7.50;99.90
5792;DHT22;2922;53.482;10.006;2023-11-18T12:44:15;7.40;99.90
5792;DHT22;2922;53.482;10.006;2023-11-18T12:46:53;7.30;99.90
5792;DHT22;2922;53.482;10.006;2023-11-18T12:49:20;7.30;99.90
5792;DHT22;2922;53.482;10.006;2023-11-18T12:51:52;7.30;99.90
5792;DHT22;2922;53.482;10.006;2023-11-18T12:54:26;7.20;99.90
5792;DHT22;2922;53.482;10.006;2023-11-18T12:56:57;7.20;99.90
5792;DHT22;2922;53.482;10.006;2023-11-18T12:59:23;7.30;99.90
5792;DHT22;2922;53.482;10.006;2023-11-18T13:01:51;7.20;99.90
5792;DHT22;2922;53.482;10.006;2023-11-18T13:04:18;7.10;99.90
5792;DHT22;2922;53.482;10.006;2023-11-18T13:06:48;7.10;99.90
5792;DHT22;2922;53.482;10.006;2023-11-18T13:09:14;7.10;99.90
5792;DHT22;2922;53.482;10.006;2023-11-18T13:11:55;7.10;99.90
5792;DHT22;2922;53.482;10.006;2023-11-18T13:14:27;7.00;99.90
5792;DHT22;2922;53.482;10.006;2023-11-18T13:16:56;7.00;99.90
5792;DHT22;2922;53.482;10.006;2023-11-18T13:19:25;7.00;99.90
5792;DHT22;2922;53.482;10.006;2023-11-18T13:21:55;7.00;99.90
5792;DHT22;2922;53.482;10.006;2023-11-18T13:24:21;7.00;99.90
5792;DHT22;2922;53.482;10.006;2023-11-18T13:26:47;6.90;99.90
5792;DHT22;2922;53.482;10.006;2023-11-18T13:29:14;6.90;99.90
5792;DHT22;2922;53.482;10.006;2023-11-18T13:31:40;6.90;99.90
5792;DHT22;2922;53.482;10.006;2023-11-18T13:34:06;6.90;99.90
5792;DHT22;2922;53.482;10.006;2023-11-18T13:36:32;6.90;99.90
5792;DHT22;2922;53.482;10.006;2023-11-18T13:38:58;6.90;99.90
5792;DHT22;2922;53.482;10.006;2023-11-18T13:41:30;6.90;99.90
5792;DHT22;2922;53.482;10.006;2023-11-18T13:43:57;6.90;99.90
5792;DHT22;2922;53.482;10.006;2023-11-18T13:46:24;6.90;99.90
5792;DHT22;2922;53.482;10.006;2023-11-18T13:48:50;6.80;99.90
5792;DHT22;2922;53.482;10.006;2023-11-18T13:51:17;6.80;99.90
5792;DHT22;2922;53.482;10.006;2023-11-18T13:53:45;6.80;99.90
5792;DHT22;2922;53.482;10.006;2023-11-18T13:56:12;6.80;99.90
5792;DHT22;2922;53.482;10.006;2023-11-18T13:58:39;6.70;99.90
5792;DHT22;2922;53.482;10.006;2023-11-18T14:01:08;6.70;99.90
5792;DHT22;2922;53.482;10.006;2023-11-18T14:03:37;6.60;99.90
5792;DHT22;2922;53.482;10.006;2023-11-18T14:06:06;6.60;99.90
5792;DHT22;2922;53.482;10.006;2023-11-18T14:08:31;6.60;99.90
5792;DHT22;2922;53.482;10.006;2023-11-18T14:10:59;6.60;99.90
5792;DHT22;2922;53.482;10.006;2023-11-18T14:13:25;6.50;99.90
5792;DHT22;2922;53.482;10.006;2023-11-18T14:15:59;6.50;99.90
5792;DHT22;2922;53.482;10.006;2023-11-18T14:18:25;6.50;99.90
5792;DHT22;2922;53.482;10.006;2023-11-18T14:20:51;6.40;99.90
5792;DHT22;2922;53.482;10.006;2023-11-18T14:23:17;6.40;99.90
5792;DHT22;2922;53.482;10.006;2023-11-18T14:25:44;6.40;99.90
5792;DHT22;2922;53.482;10.006;2023-11-18T14:28:11;6.40;99.90
5792;DHT22;2922;53.482;10.006;2023-11-18T14:30:36;6.40;99.90
5792;DHT22;2922;53.482;10.006;2023-11-18T14:33:02;6.30;99.90
5792;DHT22;2922;53.482;10.006;2023-11-18T14:35:29;6.30;99.90
5792;DHT22;2922;53.482;10.006;2023-11-18T14:37:55;6.30;99.90
5792;DHT22;2922;53.482;10.006;2023-11-18T14:40:21;6.30;99.90
5792;DHT22;2922;53.482;10.006;2023-11-18T14:42:49;6.20;99.90
5792;DHT22;2922;53.482;10.006;2023-11-18T14:45:16;6.20;99.90
5792;DHT22;2922;53.482;10.006;2023-11-18T14:47:43;6.20;99.90
5792;DHT22;2922;53.482;10.006;2023-11-18T14:50:14;6.20;99.90
5792;DHT22;2922;53.482;10.006;2023-11-18T14:52:47;6.10;99.90
5792;DHT22;2922;53.482;10.006;2023-11-18T14:55:14;6.10;99.90
5792;DHT22;2922;53.482;10.006;2023-11-18T14:57:43;6.10;99.90
5792;DHT22;2922;53.482;10.006;2023-11-18T15:00:12;6.10;99.90
5792;DHT22;2922;53.482;10.006;2023-11-18T15:02:52;6.10;99.90
5792;DHT22;2922;53.482;10.006;2023-11-18T15:05:19;6.10;99.90
5792;DHT22;2922;53.482;10.006;2023-11-18T15:07:54;6.00;99.90
5792;DHT22;2922;53.482;10.006;2023-11-18T15:10:22;6.00;99.90
5792;DHT22;2922;53.482;10.006;2023-11-18T15:12:48;6.00;99.90
5792;DHT22;2922;53.482;10.006;2023-11-18T15:15:21;6.00;99.90
5792;DHT22;2922;53.482;10.006;2023-11-18T15:17:48;6.00;99.90
5792;DHT22;2922;53.482;10.006;2023-11-18T15:20:17;6.00;99.90
5792;DHT22;2922;53.482;10.006;2023-11-18T15:22:48;5.90;99.90
5792;DHT22;2922;53.482;10.006;2023-11-18T15:25:14;5.90;99.90
5792;DHT22;2922;53.482;10.006;2023-11-18T15:27:46;5.90;99.90
5792;DHT22;2922;53.482;10.006;2023-11-18T15:30:15;5.90;99.90
5792;DHT22;2922;53.482;10.006;2023-11-18T15:32:43;5.90;99.90
5792;DHT22;2922;53.482;10.006;2023-11-18T15:35:09;5.80;99.90
5792;DHT22;2922;53.482;10.006;2023-11-18T15:37:36;5.80;99.90
5792;DHT22;2922;53.482;10.006;2023-11-18T15:40:04;5.80;99.90
5792;DHT22;2922;53.482;10.006;2023-11-18T15:42:45;5.80;99.90
5792;DHT22;2922;53.482;10.006;2023-11-18T15:45:18;5.80;99.90
5792;DHT22;2922;53.482;10.006;2023-11-18T15:47:44;5.80;99.90
5792;DHT22;2922;53.482;10.006;2023-11-18T15:50:12;5.80;99.90
5792;DHT22;2922;53.482;10.006;2023-11-18T15:52:49;5.80;99.90
5792;DHT22;2922;53.482;10.006;2023-11-18T15:55:15;5.70;99.90
5792;DHT22;2922;53.482;10.006;2023-11-18T15:57:46;5.70;99.90
5792;DHT22;2922;53.482;10.006;2023-11-18T16:00:23;5.70;99.90
5792;DHT22;2922;53.482;10.006;2023-11-18T16:02:54;5.70;99.90
5792;DHT22;2922;53.482;10.006;2023-11-18T16:05:26;5.70;99.90
5792;DHT22;2922;53.482;10.006;2023-11-18T16:07:52;5.70;99.90
5792;DHT22;2922;53.482;10.006;2023-11-18T16:10:23;5.60;99.90
5792;DHT22;2922;53.482;10.006;2023-11-18T16:12:50;5.60;99.90
5792;DHT22;2922;53.482;10.006;2023-11-18T16:15:17;5.60;99.90
5792;DHT22;2922;53.482;10.006;2023-11-18T16:17:45;5.60;99.90
5792;DHT22;2922;53.482;10.006;2023-11-18T16:20:12;5.60;99.90
5792;DHT22;2922;53.482;10.006;2023-11-18T16:22:41;5.60;99.90
5792;DHT22;2922;53.482;10.006;2023-11-18T16:25:07;5.60;99.90
5792;DHT22;2922;53.482;10.006;2023-11-18T16:27:32;5.70;99.90
5792;DHT22;2922;53.482;10.006;2023-11-18T16:29:58;5.70;99.90
5792;DHT22;2922;53.482;10.006;2023-11-18T16:32:24;5.60;99.90
5792;DHT22;2922;53.482;10.006;2023-11-18T16:34:50;5.70;99.90
5792;DHT22;2922;53.482;10.006;2023-11-18T16:37:16;5.60;99.90
5792;DHT22;2922;53.482;10.006;2023-11-18T16:39:42;5.60;99.90